Time;durP1;ratioP1;P1;durP2;ratioP2;P2;SDS_P1;SDS_P2;PMS_P1;PMS_P2;Temp;Humidity;BMP_temperature;BMP_pressure;BME280_temperature;BME280_humidity;BME280_pressure;Samples;Min_cycle;Max_cycle;Signal;HPM_P1;HPM_P2
2023/09/08 04:41:30;;;;;;;;;;;;;;;10.42;82.30;101042.97;107890;1279;22571;-48
2023/09/08 04:43:58;;;;;;;;;;;;;;;10.48;82.51;101039.38;108903;1275;22578;-48
2023/09/08 04:46:25;;;;;;;;;;;;;;;10.55;83.07;101042.26;108280;1275;22711;-49
2023/09/08 04:48:53;;;;;;;;;;;;;;;10.66;83.49;101036.63;107182;1276;22515;-51
2023/09/08 04:51:21;;;;;;;;;;;;;;;10.77;83.55;101037.80;108465;1263;22637;-48
2023/09/08 04:53:49;;;;;;;;;;;;;;;10.86;83.77;101041.04;108523;1278;22516;-48
2023/09/08 04:56:16;;;;;;;;;;;;;;;10.98;84.00;101039.94;109866;1278;23165;-49
2023/09/08 04:58:44;;;;;;;;;;;;;;;11.12;83.99;101041.46;109786;1279;23060;-48
2023/09/08 05:01:12;;;;;;;;;;;;;;;11.26;84.23;101042.48;109878;1265;22448;-48
2023/09/08 05:03:40;;;;;;;;;;;;;;;11.41;83.95;101034.73;109552;1278;22497;-47
2023/09/08 05:06:08;;;;;;;;;;;;;;;11.55;83.65;101035.91;108021;1275;25258;-47
2023/09/08 05:08:36;;;;;;;;;;;;;;;11.68;83.13;101041.24;109863;1265;22907;-50
2023/09/08 05:11:04;;;;;;;;;;;;;;;11.80;83.03;101041.17;109828;1279;22451;-49
2023/09/08 05:13:31;;;;;;;;;;;;;;;11.93;82.76;101041.27;109571;1277;22489;-53
2023/09/08 05:16:10;;;;;;;;;;;;;;;12.07;82.43;101042.77;109174;1279;25206;-49
2023/09/08 05:18:49;;;;;;;;;;;;;;;12.21;82.12;101042.84;107971;1272;24312;-49
2023/09/08 05:21:17;;;;;;;;;;;;;;;12.34;81.60;101043.08;107772;1280;25306;-50
2023/09/08 05:23:45;;;;;;;;;;;;;;;12.46;81.32;101036.13;109434;1272;22963;-47
2023/09/08 05:26:13;;;;;;;;;;;;;;;12.59;80.91;101032.16;109626;1278;22779;-50
2023/09/08 05:28:41;;;;;;;;;;;;;;;12.74;80.86;101026.77;109569;1273;22621;-50
2023/09/08 05:31:10;;;;;;;;;;;;;;;12.94;80.52;101025.59;109094;1272;24229;-49
2023/09/08 05:33:38;;;;;;;;;;;;;;;13.16;79.85;101021.25;109133;1265;22555;-47
2023/09/08 05:36:06;;;;;;;;;;;;;;;13.37;79.15;101021.63;109262;1272;22504;-47
2023/09/08 05:38:34;;;;;;;;;;;;;;;13.53;78.63;101018.30;109650;1275;23137;-48
2023/09/08 05:41:02;;;;;;;;;;;;;;;13.68;78.49;101018.28;109743;1272;22444;-49
2023/09/08 05:43:31;;;;;;;;;;;;;;;13.83;78.16;101015.64;109723;1273;23284;-47
2023/09/08 05:46:01;;;;;;;;;;;;;;;13.99;77.68;101013.49;109405;1272;22510;-49
2023/09/08 05:48:29;;;;;;;;;;;;;;;14.14;77.43;101019.23;109633;1277;22428;-49
2023/09/08 05:50:58;;;;;;;;;;;;;;;14.29;77.20;101017.61;109790;1274;22428;-50
2023/09/08 05:53:25;;;;;;;;;;;;;;;14.45;76.86;101016.34;109832;1278;22421;-49
2023/09/08 05:55:54;;;;;;;;;;;;;;;14.61;76.47;101014.52;109757;1276;22447;-50
2023/09/08 05:58:21;;;;;;;;;;;;;;;14.78;76.04;101013.55;109669;1275;22511;-48
2023/09/08 06:01:13;;;;;;;;;;;;;;;14.93;75.38;101015.02;109584;1278;22592;-50
2023/09/08 06:22:50;;;;;;;;;;;;;;;16.33;70.35;101005.65;109591;1273;23223;-51
2023/09/08 06:30:24;;;;;;;;;;;;;;;16.86;67.50;101000.92;108941;1273;22480;-52
2023/09/08 06:32:52;;;;;;;;;;;;;;;17.09;66.31;100994.04;109643;1273;22422;-49
2023/09/08 06:35:19;;;;;;;;;;;;;;;17.28;65.37;100992.50;109728;1273;22448;-49
2023/09/08 06:37:47;;;;;;;;;;;;;;;17.45;63.71;100990.26;109855;1262;23179;-48
2023/09/08 06:40:15;;;;;;;;;;;;;;;17.62;61.93;100988.20;109810;1273;23111;-51
2023/09/08 06:42:43;;;;;;;;;;;;;;;17.75;60.42;100986.59;109824;1272;23575;-52
2023/09/08 06:45:17;;;;;;;;;;;;;;;17.84;59.35;100986.95;109798;1272;22559;-51
2023/09/08 06:47:45;;;;;;;;;;;;;;;17.94;58.57;100986.41;109800;1272;22461;-52
2023/09/08 06:50:13;;;;;;;;;;;;;;;18.05;58.54;100979.48;109773;1279;23158;-52
2023/09/08 06:52:41;;;;;;;;;;;;;;;18.18;58.55;100980.27;109915;1263;22421;-49
2023/09/08 06:55:09;;;;;;;;;;;;;;;18.31;58.79;100979.84;109717;1273;22432;-51
2023/09/08 06:57:37;;;;;;;;;;;;;;;18.47;57.54;100979.33;109713;1272;22499;-50
2023/09/08 07:00:08;;;;;;;;;;;;;;;18.61;56.38;100982.55;108793;1262;23331;-50
2023/09/08 07:02:37;;;;;;;;;;;;;;;18.69;55.52;100980.96;109382;1276;22505;-50
2023/09/08 07:05:08;;;;;;;;;;;;;;;18.78;55.18;100976.88;109733;1279;22547;-50
2023/09/08 07:07:36;;;;;;;;;;;;;;;18.87;54.01;100975.96;109785;1272;23309;-51
2023/09/08 07:10:04;;;;;;;;;;;;;;;18.94;52.26;100971.39;109281;1265;22528;-52
2023/09/08 07:12:32;;;;;;;;;;;;;;;19.00;50.86;100974.61;109367;1273;22488;-52
2023/09/08 07:14:59;;;;;;;;;;;;;;;19.11;49.93;100975.92;109558;1276;22433;-51
2023/09/08 07:17:30;;;;;;;;;;;;;;;19.21;49.02;100980.27;108986;1276;22669;-50
2023/09/08 07:20:14;;;;;;;;;;;;;;;19.20;47.88;100972.52;109411;1275;23370;-50
2023/09/08 07:22:42;;;;;;;;;;;;;;;19.12;48.08;100976.08;109544;1278;22471;-48
2023/09/08 07:25:10;;;;;;;;;;;;;;;19.10;47.90;100973.83;109723;1278;22847;-49
2023/09/08 07:27:37;;;;;;;;;;;;;;;19.10;47.84;100975.05;109424;1273;22454;-51
2023/09/08 07:30:06;;;;;;;;;;;;;;;19.18;47.35;100974.16;109096;1274;22651;-51
2023/09/08 07:32:34;;;;;;;;;;;;;;;19.29;47.13;100971.59;108984;1273;22619;-51
2023/09/08 07:35:01;;;;;;;;;;;;;;;19.41;46.93;100968.79;109348;1276;22608;-50
2023/09/08 07:37:29;;;;;;;;;;;;;;;19.57;46.25;100965.38;109540;1273;23890;-48
2023/09/08 07:39:57;;;;;;;;;;;;;;;19.64;45.54;100962.54;109258;1275;208330;-48
2023/09/08 07:42:25;;;;;;;;;;;;;;;19.68;45.26;100961.77;109661;1275;22445;-50
2023/09/08 07:44:53;;;;;;;;;;;;;;;19.72;45.17;100963.42;109288;1275;22525;-49
2023/09/08 07:47:21;;;;;;;;;;;;;;;19.86;45.34;100960.73;109195;1272;22508;-48
2023/09/08 07:49:49;;;;;;;;;;;;;;;20.03;45.24;100960.27;109848;1256;22496;-47
2023/09/08 07:52:17;;;;;;;;;;;;;;;20.11;44.78;100956.13;110054;1270;22434;-48
2023/09/08 07:54:44;;;;;;;;;;;;;;;20.09;44.16;100951.75;109877;1272;22505;-49
2023/09/08 07:57:12;;;;;;;;;;;;;;;20.05;44.72;100952.02;109944;1272;22503;-51
2023/09/08 07:59:40;;;;;;;;;;;;;;;20.10;44.52;100950.14;108688;1272;22990;-48
2023/09/08 08:02:07;;;;;;;;;;;;;;;20.13;43.53;100950.73;109730;1270;22498;-48
2023/09/08 08:04:34;;;;;;;;;;;;;;;20.12;43.32;100948.29;108969;1270;23342;-51
2023/09/08 08:07:02;;;;;;;;;;;;;;;20.15;43.33;100953.34;109894;1271;22418;-49
2023/09/08 08:09:31;;;;;;;;;;;;;;;20.22;43.17;100945.35;109068;1273;22988;-50
2023/09/08 08:11:58;;;;;;;;;;;;;;;20.31;42.70;100946.67;109097;1270;22598;-50
2023/09/08 08:14:26;;;;;;;;;;;;;;;20.42;42.23;100943.87;109951;1273;23734;-51
2023/09/08 08:16:53;;;;;;;;;;;;;;;20.52;41.68;100941.48;109798;1272;22432;-51
2023/09/08 08:19:21;;;;;;;;;;;;;;;20.60;41.07;100935.89;109812;1270;22453;-48
2023/09/08 08:21:50;;;;;;;;;;;;;;;20.74;40.91;100934.94;109715;1272;23304;-52
2023/09/08 08:24:19;;;;;;;;;;;;;;;20.78;40.80;100928.42;109803;1269;22990;-51
2023/09/08 08:26:47;;;;;;;;;;;;;;;20.83;41.03;100917.09;109811;1271;22460;-51
2023/09/08 08:29:14;;;;;;;;;;;;;;;20.95;40.53;100923.60;109846;1272;22438;-52
2023/09/08 08:31:42;;;;;;;;;;;;;;;20.91;40.37;100923.76;110095;1270;23217;-51
2023/09/08 08:34:09;;;;;;;;;;;;;;;20.86;40.94;100919.10;109910;1262;22443;-52
2023/09/08 08:36:37;;;;;;;;;;;;;;;20.95;41.02;100911.72;109958;1270;23290;-52
2023/09/08 08:39:05;;;;;;;;;;;;;;;21.07;40.27;100911.67;110021;1272;22492;-51
2023/09/08 08:41:37;;;;;;;;;;;;;;;21.08;40.01;100906.69;110018;1276;23134;-51
2023/09/08 08:44:06;;;;;;;;;;;;;;;21.04;39.10;100902.73;109996;1270;22453;-51
2023/09/08 08:46:36;;;;;;;;;;;;;;;21.02;39.30;100899.81;109937;1270;22429;-50
2023/09/08 08:49:04;;;;;;;;;;;;;;;21.00;39.58;100897.75;109961;1260;22460;-51
2023/09/08 08:51:31;;;;;;;;;;;;;;;21.04;39.73;100897.59;110068;1270;22455;-52
2023/09/08 08:54:04;;;;;;;;;;;;;;;21.22;39.21;100893.45;109964;1275;23080;-53
2023/09/08 08:56:31;;;;;;;;;;;;;;;21.47;37.99;100891.87;109782;1262;22475;-48
2023/09/08 08:58:59;;;;;;;;;;;;;;;21.66;37.14;100893.13;109140;1272;22561;-48
2023/09/08 09:01:26;;;;;;;;;;;;;;;21.73;35.54;100894.81;109738;1269;22473;-51
2023/09/08 09:03:54;;;;;;;;;;;;;;;21.70;35.60;100895.48;109953;1271;22410;-52
2023/09/08 09:06:21;;;;;;;;;;;;;;;21.66;36.15;100893.33;109942;1262;23189;-52
2023/09/08 09:08:49;;;;;;;;;;;;;;;21.67;36.78;100889.90;109989;1272;22425;-52
2023/09/08 09:11:16;;;;;;;;;;;;;;;21.77;36.81;100889.36;109886;1270;22422;-52
2023/09/08 09:13:44;;;;;;;;;;;;;;;21.92;36.62;100887.75;109763;1273;22504;-53
2023/09/08 09:16:11;;;;;;;;;;;;;;;21.98;36.45;100884.66;109580;1275;22761;-49
2023/09/08 09:18:53;;;;;;;;;;;;;;;21.99;36.10;100887.11;109928;1270;22532;-49
2023/09/08 09:21:20;;;;;;;;;;;;;;;21.91;35.65;100880.16;109548;1270;22584;-51
2023/09/08 09:23:47;;;;;;;;;;;;;;;21.85;35.67;100881.42;109763;1259;23083;-51
2023/09/08 09:26:25;;;;;;;;;;;;;;;21.81;35.05;100883.00;109803;1276;23065;-51
2023/09/08 09:28:53;;;;;;;;;;;;;;;21.79;34.92;100878.96;109957;1275;23248;-52
2023/09/08 09:31:25;;;;;;;;;;;;;;;21.83;34.94;100866.43;109986;1269;22413;-52
2023/09/08 09:34:05;;;;;;;;;;;;;;;21.88;34.78;100863.55;109971;1270;22420;-53
2023/09/08 09:36:33;;;;;;;;;;;;;;;21.98;34.62;100861.59;109892;1270;23122;-52
2023/09/08 09:39:00;;;;;;;;;;;;;;;22.01;32.90;100867.50;109893;1273;22456;-52
2023/09/08 09:41:28;;;;;;;;;;;;;;;21.95;32.75;100861.86;109993;1269;23803;-59
2023/09/08 09:43:57;;;;;;;;;;;;;;;21.93;33.21;100858.94;109097;1270;23340;-50
2023/09/08 09:46:28;;;;;;;;;;;;;;;21.97;33.92;100852.38;110110;1276;22429;-49
2023/09/08 09:48:58;;;;;;;;;;;;;;;22.05;33.78;100849.07;109789;1270;22498;-53
2023/09/08 09:51:26;;;;;;;;;;;;;;;22.06;33.79;100841.73;110006;1276;22457;-52
2023/09/08 09:53:54;;;;;;;;;;;;;;;22.09;34.49;100839.86;109702;1273;22513;-48
2023/09/08 09:56:22;;;;;;;;;;;;;;;22.10;34.43;100840.91;108968;1273;23590;-52
2023/09/08 09:58:49;;;;;;;;;;;;;;;22.13;34.48;100843.48;109863;1269;22588;-51
2023/09/08 10:01:17;;;;;;;;;;;;;;;22.15;34.22;100842.67;109434;1276;25126;-50
2023/09/08 10:03:45;;;;;;;;;;;;;;;22.16;33.89;100836.95;109610;1274;23513;-51
2023/09/08 10:06:14;;;;;;;;;;;;;;;22.21;34.16;100836.91;109792;1270;22535;-48
2023/09/08 10:08:43;;;;;;;;;;;;;;;22.22;33.55;100834.58;108986;1272;22584;-51
2023/09/08 10:11:10;;;;;;;;;;;;;;;22.24;33.77;100835.37;109768;1262;22500;-51
2023/09/08 10:13:42;;;;;;;;;;;;;;;22.36;33.98;100831.71;109748;1274;22497;-51
2023/09/08 10:16:10;;;;;;;;;;;;;;;22.46;33.68;100826.86;108928;1273;22622;-51
2023/09/08 10:18:38;;;;;;;;;;;;;;;22.59;33.55;100825.42;109876;1276;22845;-52
2023/09/08 10:21:05;;;;;;;;;;;;;;;22.76;33.01;100826.13;109827;1270;22893;-53
2023/09/08 10:23:33;;;;;;;;;;;;;;;22.93;33.02;100828.30;109814;1276;22416;-50
2023/09/08 10:26:03;;;;;;;;;;;;;;;23.17;32.19;100822.99;109966;1271;22545;-51
2023/09/08 10:28:31;;;;;;;;;;;;;;;23.44;31.52;100820.91;110021;1272;22434;-51
2023/09/08 10:31:00;;;;;;;;;;;;;;;23.73;30.60;100814.06;109938;1276;23035;-51
2023/09/08 10:33:27;;;;;;;;;;;;;;;24.04;29.35;100808.66;109971;1276;23207;-49
2023/09/08 10:35:55;;;;;;;;;;;;;;;24.37;29.32;100803.73;109104;1273;23106;-49
2023/09/08 10:38:27;;;;;;;;;;;;;;;24.77;28.29;100805.98;109688;1276;22494;-49
2023/09/08 10:41:13;;;;;;;;;;;;;;;24.95;28.21;100805.27;109664;1270;22487;-49
2023/09/08 10:44:00;;;;;;;;;;;;;;;25.19;27.49;100796.73;109020;1262;22553;-50
2023/09/08 10:46:29;;;;;;;;;;;;;;;25.62;27.27;100795.68;108263;1276;22834;-50
2023/09/08 10:49:07;;;;;;;;;;;;;;;25.99;26.50;100785.92;108739;1276;22546;-49
2023/09/08 10:51:35;;;;;;;;;;;;;;;26.31;26.07;100776.59;108758;1275;23111;-49
2023/09/08 10:54:04;;;;;;;;;;;;;;;26.68;24.24;100778.23;108986;1276;23617;-51
2023/09/08 10:56:48;;;;;;;;;;;;;;;26.67;24.33;100771.98;110092;1270;22882;-50
2023/09/08 10:59:17;;;;;;;;;;;;;;;26.35;24.76;100772.80;108808;1276;23162;-51
2023/09/08 11:01:47;;;;;;;;;;;;;;;26.13;25.28;100767.95;109228;1270;22526;-52
2023/09/08 11:04:25;;;;;;;;;;;;;;;26.26;24.85;100756.33;109185;1270;22587;-52
2023/09/08 11:06:55;;;;;;;;;;;;;;;26.24;25.08;100756.13;109966;1270;23282;-52
2023/09/08 11:09:23;;;;;;;;;;;;;;;25.98;25.86;100746.33;109972;1272;22444;-51
2023/09/08 11:11:50;;;;;;;;;;;;;;;25.66;26.16;100742.95;109489;1272;24223;-51
2023/09/08 11:14:18;;;;;;;;;;;;;;;25.33;26.58;100735.98;109900;1276;23599;-53
2023/09/08 11:16:46;;;;;;;;;;;;;;;25.20;26.91;100734.71;109733;1270;22487;-54
2023/09/08 11:19:15;;;;;;;;;;;;;;;25.10;27.24;100727.75;110031;1270;22487;-53
2023/09/08 11:21:43;;;;;;;;;;;;;;;25.08;27.61;100720.06;109728;1272;23410;-54
2023/09/08 11:24:14;;;;;;;;;;;;;;;25.11;27.54;100710.23;109882;1269;22448;-53
2023/09/08 11:26:45;;;;;;;;;;;;;;;25.08;28.10;100713.79;109812;1270;23778;-52
2023/09/08 11:29:13;;;;;;;;;;;;;;;25.02;27.90;100708.20;109870;1273;22569;-53
2023/09/08 11:31:41;;;;;;;;;;;;;;;24.88;27.83;100703.60;109186;1270;22497;-52
2023/09/08 11:34:10;;;;;;;;;;;;;;;24.63;28.33;100700.42;109755;1270;22560;-53
2023/09/08 11:36:38;;;;;;;;;;;;;;;24.51;28.33;100696.40;110046;1273;23631;-53
2023/09/08 11:39:06;;;;;;;;;;;;;;;24.51;28.63;100693.56;110069;1270;22450;-51
2023/09/08 11:41:34;;;;;;;;;;;;;;;24.49;28.62;100690.65;110044;1272;22449;-52
2023/09/08 11:44:01;;;;;;;;;;;;;;;24.52;28.56;100693.18;110039;1275;23145;-51
2023/09/08 11:46:30;;;;;;;;;;;;;;;24.56;27.88;100693.13;109063;1275;22797;-52
2023/09/08 11:48:57;;;;;;;;;;;;;;;24.42;28.05;100687.08;110094;1273;22419;-53
2023/09/08 11:51:25;;;;;;;;;;;;;;;24.34;28.03;100685.31;110050;1276;23197;-52
2023/09/08 11:53:54;;;;;;;;;;;;;;;24.26;27.59;100683.07;109510;1276;22995;-52
2023/09/08 11:56:22;;;;;;;;;;;;;;;24.16;27.17;100682.51;110055;1276;22472;-51
2023/09/08 11:58:50;;;;;;;;;;;;;;;24.01;27.65;100683.94;109723;1272;25232;-51
2023/09/08 12:01:18;;;;;;;;;;;;;;;23.86;27.98;100679.71;109702;1277;22535;-51
2023/09/08 12:03:52;;;;;;;;;;;;;;;23.79;28.18;100679.70;109946;1277;22954;-51
2023/09/08 12:06:23;;;;;;;;;;;;;;;23.75;28.66;100673.30;108758;1275;22532;-51
2023/09/08 12:08:50;;;;;;;;;;;;;;;23.79;28.95;100669.17;109900;1276;22508;-57
2023/09/08 12:11:18;;;;;;;;;;;;;;;23.87;28.72;100667.69;109850;1277;22463;-52
2023/09/08 12:13:45;;;;;;;;;;;;;;;23.89;29.04;100662.81;109965;1272;22519;-52
2023/09/08 12:16:19;;;;;;;;;;;;;;;23.94;29.39;100662.06;109835;1263;22460;-53
2023/09/08 12:18:49;;;;;;;;;;;;;;;23.99;29.15;100659.98;110066;1277;23018;-53
2023/09/08 12:21:17;;;;;;;;;;;;;;;23.99;28.37;100657.88;108850;1276;23186;-51
2023/09/08 12:23:49;;;;;;;;;;;;;;;23.93;28.29;100654.41;109110;1259;22465;-52
2023/09/08 12:26:17;;;;;;;;;;;;;;;23.92;28.31;100650.04;109938;1277;23188;-52
2023/09/08 12:28:44;;;;;;;;;;;;;;;23.90;28.40;100644.97;109969;1275;22826;-53
2023/09/08 12:31:15;;;;;;;;;;;;;;;23.92;28.51;100644.50;110103;1276;22842;-52
2023/09/08 12:33:43;;;;;;;;;;;;;;;23.92;28.85;100636.51;109692;1278;23265;-52
2023/09/08 12:36:16;;;;;;;;;;;;;;;23.93;28.95;100636.23;109621;1270;25840;-51
2023/09/08 12:38:50;;;;;;;;;;;;;;;23.97;29.01;100636.05;109868;1277;22578;-51
2023/09/08 12:41:18;;;;;;;;;;;;;;;23.96;28.74;100630.25;110083;1278;22447;-52
2023/09/08 12:43:46;;;;;;;;;;;;;;;23.98;29.04;100631.20;110221;1278;22413;-53
2023/09/08 12:46:16;;;;;;;;;;;;;;;24.06;28.77;100632.73;110102;1277;22520;-51
2023/09/08 12:48:43;;;;;;;;;;;;;;;24.06;28.37;100630.79;109963;1278;22392;-53
2023/09/08 12:51:11;;;;;;;;;;;;;;;24.06;27.81;100630.98;110032;1278;22414;-52
2023/09/08 12:53:38;;;;;;;;;;;;;;;24.08;27.19;100628.23;110072;1271;23246;-53
2023/09/08 12:56:06;;;;;;;;;;;;;;;24.13;27.18;100623.65;110050;1276;22440;-52
2023/09/08 12:58:33;;;;;;;;;;;;;;;24.24;27.28;100623.10;110111;1276;22465;-52
2023/09/08 13:01:01;;;;;;;;;;;;;;;24.40;27.23;100619.98;109549;1276;23261;-52
2023/09/08 13:03:29;;;;;;;;;;;;;;;24.48;26.99;100607.48;110134;1276;23183;-52
2023/09/08 13:05:56;;;;;;;;;;;;;;;24.55;26.74;100599.59;110091;1276;22447;-52
2023/09/08 13:08:24;;;;;;;;;;;;;;;24.63;26.99;100595.40;110121;1276;22383;-52
2023/09/08 13:10:51;;;;;;;;;;;;;;;24.60;26.78;100592.20;110122;1276;22418;-54
